sensor_id;sensor_type;location;lat;lon;timestamp;pressure;altitude;pressure_sealevel;temperature;humidity
68366;BME280;55283;51.466;5.478;2023-01-25T00:02:13;103546.56;;;19.25;44.76
68366;BME280;55283;51.466;5.478;2023-01-25T00:04:39;103534.03;;;19.18;44.44
68366;BME280;55283;51.466;5.478;2023-01-25T00:07:04;103546.19;;;19.26;44.74
68366;BME280;55283;51.466;5.478;2023-01-25T00:09:30;103540.50;;;19.22;44.65
68366;BME280;55283;51.466;5.478;2023-01-25T00:11:55;103548.53;;;19.24;44.56
68366;BME280;55283;51.466;5.478;2023-01-25T00:14:22;103536.09;;;19.21;44.81
68366;BME280;55283;51.466;5.478;2023-01-25T00:16:48;103538.09;;;19.21;44.89
68366;BME280;55283;51.466;5.478;2023-01-25T00:19:13;103541.69;;;19.21;44.97
68366;BME280;55283;51.466;5.478;2023-01-25T00:21:39;103542.44;;;19.18;44.67
68366;BME280;55283;51.466;5.478;2023-01-25T00:24:05;103531.09;;;19.11;44.61
68366;BME280;55283;51.466;5.478;2023-01-25T00:26:34;103545.16;;;19.15;44.95
68366;BME280;55283;51.466;5.478;2023-01-25T00:29:00;103532.72;;;19.12;44.63
68366;BME280;55283;51.466;5.478;2023-01-25T00:37:35;103528.66;;;19.10;44.72
68366;BME280;55283;51.466;5.478;2023-01-25T00:39:55;103533.88;;;19.11;44.70
68366;BME280;55283;51.466;5.478;2023-01-25T00:42:22;103533.47;;;19.09;44.92
68366;BME280;55283;51.466;5.478;2023-01-25T00:44:48;103529.47;;;19.10;44.61
68366;BME280;55283;51.466;5.478;2023-01-25T00:47:14;103528.59;;;19.06;44.97
68366;BME280;55283;51.466;5.478;2023-01-25T00:49:41;103529.41;;;19.07;44.92
68366;BME280;55283;51.466;5.478;2023-01-25T00:52:07;103508.00;;;18.95;44.74
68366;BME280;55283;51.466;5.478;2023-01-25T00:54:33;103531.81;;;19.08;44.83
68366;BME280;55283;51.466;5.478;2023-01-25T00:56:58;103531.00;;;19.08;44.96
68366;BME280;55283;51.466;5.478;2023-01-25T00:59:24;103537.00;;;19.06;44.84
68366;BME280;55283;51.466;5.478;2023-01-25T01:01:50;103525.00;;;19.06;44.98
68366;BME280;55283;51.466;5.478;2023-01-25T01:04:16;103528.16;;;19.04;44.50
68366;BME280;55283;51.466;5.478;2023-01-25T01:06:42;103527.34;;;19.04;44.67
68366;BME280;55283;51.466;5.478;2023-01-25T01:09:16;103514.97;;;19.05;45.05
68366;BME280;55283;51.466;5.478;2023-01-25T01:11:42;103526.97;;;19.05;44.64
68366;BME280;55283;51.466;5.478;2023-01-25T01:14:07;103516.97;;;19.04;44.88
68366;BME280;55283;51.466;5.478;2023-01-25T01:16:34;103506.44;;;18.97;44.89
68366;BME280;55283;51.466;5.478;2023-01-25T01:18:59;103515.78;;;19.05;44.73
68366;BME280;55283;51.466;5.478;2023-01-25T01:21:25;103508.06;;;18.98;44.90
68366;BME280;55283;51.466;5.478;2023-01-25T01:23:50;103518.97;;;19.04;44.72
68366;BME280;55283;51.466;5.478;2023-01-25T01:26:17;103505.25;;;18.98;44.70
68366;BME280;55283;51.466;5.478;2023-01-25T01:28:46;103508.50;;;19.00;44.94
68366;BME280;55283;51.466;5.478;2023-01-25T01:31:16;103517.78;;;19.05;44.66
68366;BME280;55283;51.466;5.478;2023-01-25T01:33:42;103516.69;;;19.09;44.79
68366;BME280;55283;51.466;5.478;2023-01-25T01:36:13;103514.31;;;19.11;44.55
68366;BME280;55283;51.466;5.478;2023-01-25T01:38:40;103516.75;;;19.13;44.42
68366;BME280;55283;51.466;5.478;2023-01-25T01:41:06;103524.03;;;19.17;44.33
68366;BME280;55283;51.466;5.478;2023-01-25T01:43:32;103521.16;;;19.14;44.31
68366;BME280;55283;51.466;5.478;2023-01-25T01:45:59;103529.53;;;19.14;44.38
68366;BME280;55283;51.466;5.478;2023-01-25T01:51:11;103519.53;;;19.13;44.59
68366;BME280;55283;51.466;5.478;2023-01-25T01:53:50;103519.84;;;19.08;44.78
68366;BME280;55283;51.466;5.478;2023-01-25T01:56:22;103507.78;;;19.04;44.59
68366;BME280;55283;51.466;5.478;2023-01-25T01:58:52;103515.34;;;19.03;44.61
68366;BME280;55283;51.466;5.478;2023-01-25T02:01:19;103520.13;;;19.03;44.67
68366;BME280;55283;51.466;5.478;2023-01-25T02:03:45;103513.72;;;19.02;44.55
68366;BME280;55283;51.466;5.478;2023-01-25T02:06:14;103518.22;;;19.07;44.63
68366;BME280;55283;51.466;5.478;2023-01-25T02:08:43;103519.75;;;19.04;44.69
68366;BME280;55283;51.466;5.478;2023-01-25T02:11:09;103512.91;;;19.02;44.66
68366;BME280;55283;51.466;5.478;2023-01-25T02:13:36;103499.22;;;18.96;44.51
68366;BME280;55283;51.466;5.478;2023-01-25T02:16:02;103508.94;;;19.03;44.74
68366;BME280;55283;51.466;5.478;2023-01-25T02:18:28;103499.66;;;18.98;44.49
68366;BME280;55283;51.466;5.478;2023-01-25T02:20:56;103510.56;;;19.04;44.56
68366;BME280;55283;51.466;5.478;2023-01-25T02:26:00;103508.06;;;18.98;44.51
68366;BME280;55283;51.466;5.478;2023-01-25T02:28:34;103514.97;;;19.05;44.66
68366;BME280;55283;51.466;5.478;2023-01-25T02:31:01;103512.56;;;19.03;44.39
68366;BME280;55283;51.466;5.478;2023-01-25T02:33:27;103505.34;;;19.02;44.58
68366;BME280;55283;51.466;5.478;2023-01-25T02:35:59;103496.53;;;19.00;44.67
68366;BME280;55283;51.466;5.478;2023-01-25T02:38:33;103481.28;;;18.97;44.72
68366;BME280;55283;51.466;5.478;2023-01-25T02:41:05;103492.31;;;19.10;44.49
68366;BME280;55283;51.466;5.478;2023-01-25T02:43:33;103482.31;;;19.09;44.39
68366;BME280;55283;51.466;5.478;2023-01-25T02:46:04;103489.59;;;19.13;44.23
68366;BME280;55283;51.466;5.478;2023-01-25T02:48:35;103487.97;;;19.12;44.44
68366;BME280;55283;51.466;5.478;2023-01-25T02:51:00;103481.06;;;19.06;44.57
68366;BME280;55283;51.466;5.478;2023-01-25T02:53:26;103491.59;;;19.13;44.39
68366;BME280;55283;51.466;5.478;2023-01-25T02:55:51;103475.84;;;19.05;44.38
68366;BME280;55283;51.466;5.478;2023-01-25T02:58:17;103475.03;;;19.04;44.46
68366;BME280;55283;51.466;5.478;2023-01-25T03:00:42;103481.50;;;19.08;44.44
68366;BME280;55283;51.466;5.478;2023-01-25T03:03:08;103483.41;;;19.04;44.51
68366;BME280;55283;51.466;5.478;2023-01-25T03:05:33;103484.66;;;19.07;44.37
68366;BME280;55283;51.466;5.478;2023-01-25T03:07:58;103487.03;;;19.05;44.58
68366;BME280;55283;51.466;5.478;2023-01-25T03:10:24;103487.03;;;19.05;44.61
68366;BME280;55283;51.466;5.478;2023-01-25T03:12:49;103485.03;;;19.05;44.42
68366;BME280;55283;51.466;5.478;2023-01-25T03:15:14;103470.91;;;18.98;44.54
68366;BME280;55283;51.466;5.478;2023-01-25T03:17:40;103452.81;;;18.92;44.62
68366;BME280;55283;51.466;5.478;2023-01-25T03:20:06;103469.78;;;19.03;44.45
68366;BME280;55283;51.466;5.478;2023-01-25T03:22:31;103470.97;;;19.02;44.66
68366;BME280;55283;51.466;5.478;2023-01-25T03:24:56;103462.59;;;19.02;44.60
68366;BME280;55283;51.466;5.478;2023-01-25T03:27:22;103463.41;;;19.02;44.35
68366;BME280;55283;51.466;5.478;2023-01-25T03:29:47;103464.59;;;19.01;44.87
68366;BME280;55283;51.466;5.478;2023-01-25T03:32:13;103454.16;;;18.98;44.37
68366;BME280;55283;51.466;5.478;2023-01-25T03:34:38;103442.91;;;18.94;44.59
68366;BME280;55283;51.466;5.478;2023-01-25T03:37:04;103454.22;;;19.02;44.42
68366;BME280;55283;51.466;5.478;2023-01-25T03:39:29;103451.06;;;19.03;44.42
68366;BME280;55283;51.466;5.478;2023-01-25T03:41:54;103442.56;;;18.99;44.43
68366;BME280;55283;51.466;5.478;2023-01-25T03:44:20;103434.50;;;18.94;44.50
68366;BME280;55283;51.466;5.478;2023-01-25T03:46:45;103442.06;;;18.94;44.38
68366;BME280;55283;51.466;5.478;2023-01-25T03:49:11;103445.38;;;18.99;44.36
68366;BME280;55283;51.466;5.478;2023-01-25T03:51:37;103443.75;;;18.98;44.30
68366;BME280;55283;51.466;5.478;2023-01-25T03:54:03;103442.16;;;18.97;44.56
68366;BME280;55283;51.466;5.478;2023-01-25T03:56:28;103446.56;;;18.98;44.30
68366;BME280;55283;51.466;5.478;2023-01-25T03:58:54;103448.63;;;19.02;44.21
68366;BME280;55283;51.466;5.478;2023-01-25T04:01:19;103450.22;;;19.03;44.54
68366;BME280;55283;51.466;5.478;2023-01-25T04:03:45;103447.06;;;19.04;44.21
68366;BME280;55283;51.466;5.478;2023-01-25T04:06:10;103442.34;;;19.08;44.42
68366;BME280;55283;51.466;5.478;2023-01-25T04:08:36;103440.75;;;19.07;44.36
68366;BME280;55283;51.466;5.478;2023-01-25T04:11:02;103441.19;;;19.09;44.26
68366;BME280;55283;51.466;5.478;2023-01-25T04:13:28;103435.53;;;19.06;44.30
68366;BME280;55283;51.466;5.478;2023-01-25T04:15:54;103441.47;;;19.04;44.40
68366;BME280;55283;51.466;5.478;2023-01-25T04:18:20;103443.03;;;19.02;44.35
68366;BME280;55283;51.466;5.478;2023-01-25T04:20:50;103438.25;;;19.02;44.41
68366;BME280;55283;51.466;5.478;2023-01-25T04:23:16;103438.63;;;19.00;44.13
68366;BME280;55283;51.466;5.478;2023-01-25T04:25:42;103431.84;;;19.02;44.39
68366;BME280;55283;51.466;5.478;2023-01-25T04:28:07;103437.81;;;19.00;44.41
68366;BME280;55283;51.466;5.478;2023-01-25T04:30:32;103435.03;;;19.00;44.36
68366;BME280;55283;51.466;5.478;2023-01-25T04:33:02;103428.59;;;18.99;44.31
68366;BME280;55283;51.466;5.478;2023-01-25T04:35:28;103424.66;;;19.00;44.32
68366;BME280;55283;51.466;5.478;2023-01-25T04:37:57;103428.59;;;18.99;44.26
68366;BME280;55283;51.466;5.478;2023-01-25T04:40:23;103422.22;;;18.99;44.28
68366;BME280;55283;51.466;5.478;2023-01-25T04:42:48;103421.78;;;18.97;44.29
68366;BME280;55283;51.466;5.478;2023-01-25T04:45:14;103422.22;;;18.99;44.35
68366;BME280;55283;51.466;5.478;2023-01-25T04:47:39;103429.44;;;19.00;44.37
68366;BME280;55283;51.466;5.478;2023-01-25T04:50:05;103421.84;;;19.00;44.36
68366;BME280;55283;51.466;5.478;2023-01-25T04:52:30;103418.25;;;19.00;44.15
68366;BME280;55283;51.466;5.478;2023-01-25T04:54:56;103413.47;;;19.00;43.98
68366;BME280;55283;51.466;5.478;2023-01-25T04:57:21;103400.13;;;18.94;44.29
68366;BME280;55283;51.466;5.478;2023-01-25T04:59:46;103412.22;;;18.98;44.17
68366;BME280;55283;51.466;5.478;2023-01-25T05:02:12;103405.00;;;18.97;44.22
68366;BME280;55283;51.466;5.478;2023-01-25T05:04:37;103397.06;;;18.99;44.22
68366;BME280;55283;51.466;5.478;2023-01-25T05:07:03;103393.38;;;18.95;44.26
68366;BME280;55283;51.466;5.478;2023-01-25T05:09:28;103388.09;;;18.90;44.23
68366;BME280;55283;51.466;5.478;2023-01-25T05:11:53;103397.34;;;18.94;44.24
68366;BME280;55283;51.466;5.478;2023-01-25T05:14:19;103392.59;;;18.94;44.23
68366;BME280;55283;51.466;5.478;2023-01-25T05:16:44;103393.44;;;18.98;44.27
68366;BME280;55283;51.466;5.478;2023-01-25T05:19:11;103388.38;;;19.04;44.06
68366;BME280;55283;51.466;5.478;2023-01-25T05:21:36;103392.84;;;19.09;44.25
68366;BME280;55283;51.466;5.478;2023-01-25T05:24:21;103398.50;;;19.12;44.16
68366;BME280;55283;51.466;5.478;2023-01-25T05:26:46;103400.13;;;19.13;44.02
68366;BME280;55283;51.466;5.478;2023-01-25T05:29:25;103391.44;;;19.18;43.93
68366;BME280;55283;51.466;5.478;2023-01-25T05:31:50;103379.75;;;19.13;43.95
68366;BME280;55283;51.466;5.478;2023-01-25T05:34:15;103383.03;;;19.18;43.90
68366;BME280;55283;51.466;5.478;2023-01-25T05:36:41;103386.28;;;19.20;43.98
68366;BME280;55283;51.466;5.478;2023-01-25T05:39:06;103384.66;;;19.19;43.97
68366;BME280;55283;51.466;5.478;2023-01-25T05:41:33;103385.03;;;19.18;43.90
68366;BME280;55283;51.466;5.478;2023-01-25T05:43:58;103387.44;;;19.19;44.05
68366;BME280;55283;51.466;5.478;2023-01-25T05:46:26;103386.28;;;19.20;43.81
68366;BME280;55283;51.466;5.478;2023-01-25T05:48:51;103381.78;;;19.16;43.99
68366;BME280;55283;51.466;5.478;2023-01-25T05:51:16;103386.59;;;19.15;43.86
68366;BME280;55283;51.466;5.478;2023-01-25T05:53:42;103386.94;;;19.14;44.07
68366;BME280;55283;51.466;5.478;2023-01-25T05:56:08;103384.47;;;19.09;44.12
68366;BME280;55283;51.466;5.478;2023-01-25T05:58:35;103387.69;;;19.11;44.04
68366;BME280;55283;51.466;5.478;2023-01-25T06:01:01;103376.09;;;19.09;44.24
68366;BME280;55283;51.466;5.478;2023-01-25T06:03:26;103386.38;;;19.05;44.19
68366;BME280;55283;51.466;5.478;2023-01-25T06:05:56;103385.56;;;19.04;43.97
68366;BME280;55283;51.466;5.478;2023-01-25T06:08:22;103376.69;;;18.98;44.09
68366;BME280;55283;51.466;5.478;2023-01-25T06:10:47;103371.09;;;18.98;44.24
68366;BME280;55283;51.466;5.478;2023-01-25T06:13:12;103388.38;;;19.04;44.34
68366;BME280;55283;51.466;5.478;2023-01-25T06:15:38;103380.78;;;19.05;44.17
68366;BME280;55283;51.466;5.478;2023-01-25T06:18:03;103381.16;;;19.03;44.22
68366;BME280;55283;51.466;5.478;2023-01-25T06:20:28;103379.53;;;19.02;44.08
68366;BME280;55283;51.466;5.478;2023-01-25T06:22:54;103380.72;;;19.01;44.28
68366;BME280;55283;51.466;5.478;2023-01-25T06:27:44;103382.34;;;19.02;44.19
68366;BME280;55283;51.466;5.478;2023-01-25T06:30:10;103363.81;;;18.94;44.13
68366;BME280;55283;51.466;5.478;2023-01-25T06:32:35;103366.59;;;18.94;44.11
68366;BME280;55283;51.466;5.478;2023-01-25T06:35:01;103379.72;;;18.90;44.62
68366;BME280;55283;51.466;5.478;2023-01-25T06:37:27;103375.31;;;18.89;44.84
68366;BME280;55283;51.466;5.478;2023-01-25T06:39:52;103367.06;;;18.76;44.83
68366;BME280;55283;51.466;5.478;2023-01-25T06:42:18;103373.09;;;18.78;44.82
68366;BME280;55283;51.466;5.478;2023-01-25T06:44:43;103377.94;;;18.82;45.26
68366;BME280;55283;51.466;5.478;2023-01-25T06:47:09;103381.94;;;18.81;45.10
68366;BME280;55283;51.466;5.478;2023-01-25T06:49:35;103377.94;;;18.82;45.20
68366;BME280;55283;51.466;5.478;2023-01-25T06:52:00;103380.50;;;18.90;45.56
68366;BME280;55283;51.466;5.478;2023-01-25T06:54:26;103377.53;;;19.03;45.21
68366;BME280;55283;51.466;5.478;2023-01-25T06:56:52;103370.41;;;19.05;44.71
68366;BME280;55283;51.466;5.478;2023-01-25T06:59:17;103379.25;;;19.07;45.46
68366;BME280;55283;51.466;5.478;2023-01-25T07:01:43;103378.19;;;19.15;45.26
68366;BME280;55283;51.466;5.478;2023-01-25T07:04:10;103360.16;;;19.13;45.36
68366;BME280;55283;51.466;5.478;2023-01-25T07:06:38;103366.28;;;19.18;45.44
68366;BME280;55283;51.466;5.478;2023-01-25T07:09:07;103373.34;;;19.12;45.78
68366;BME280;55283;51.466;5.478;2023-01-25T07:11:34;103355.25;;;19.06;45.15
68366;BME280;55283;51.466;5.478;2023-01-25T07:13:59;103358.81;;;19.03;46.01
68366;BME280;55283;51.466;5.478;2023-01-25T07:16:25;103375.25;;;19.08;45.61
68366;BME280;55283;51.466;5.478;2023-01-25T07:18:51;103355.69;;;19.08;45.73
68366;BME280;55283;51.466;5.478;2023-01-25T07:21:18;103373.75;;;18.91;39.80
68366;BME280;55283;51.466;5.478;2023-01-25T07:23:45;103370.06;;;18.48;34.48
68366;BME280;55283;51.466;5.478;2023-01-25T07:26:21;103371.25;;;18.12;32.95
68366;BME280;55283;51.466;5.478;2023-01-25T07:28:47;103373.28;;;17.96;33.67
68366;BME280;55283;51.466;5.478;2023-01-25T07:31:14;103360.81;;;18.09;36.75
68366;BME280;55283;51.466;5.478;2023-01-25T07:33:40;103358.19;;;18.16;39.18
68366;BME280;55283;51.466;5.478;2023-01-25T07:36:07;103372.09;;;18.32;40.51
68366;BME280;55283;51.466;5.478;2023-01-25T07:38:34;103369.81;;;18.38;41.58
68366;BME280;55283;51.466;5.478;2023-01-25T07:41:00;103358.31;;;18.39;42.10
68366;BME280;55283;51.466;5.478;2023-01-25T07:43:26;103356.38;;;18.43;42.10
68366;BME280;55283;51.466;5.478;2023-01-25T07:45:52;103350.78;;;18.43;42.30
68366;BME280;55283;51.466;5.478;2023-01-25T07:48:19;103363.00;;;18.54;42.42
68366;BME280;55283;51.466;5.478;2023-01-25T07:50:45;103353.88;;;18.58;42.69
68366;BME280;55283;51.466;5.478;2023-01-25T07:53:14;103356.75;;;18.61;42.61
68366;BME280;55283;51.466;5.478;2023-01-25T07:55:40;103349.16;;;18.62;42.66
68366;BME280;55283;51.466;5.478;2023-01-25T07:58:05;103346.75;;;18.60;42.83
68366;BME280;55283;51.466;5.478;2023-01-25T08:00:30;103355.22;;;18.64;42.56
68366;BME280;55283;51.466;5.478;2023-01-25T08:02:56;103351.53;;;18.60;39.84
68366;BME280;55283;51.466;5.478;2023-01-25T08:05:21;103362.78;;;18.63;40.81
68366;BME280;55283;51.466;5.478;2023-01-25T08:07:47;103357.69;;;18.49;34.44
68366;BME280;55283;51.466;5.478;2023-01-25T08:10:13;103359.25;;;18.27;34.06
68366;BME280;55283;51.466;5.478;2023-01-25T08:12:38;103352.69;;;18.20;35.40
68366;BME280;55283;51.466;5.478;2023-01-25T08:15:04;103349.69;;;18.28;37.78
68366;BME280;55283;51.466;5.478;2023-01-25T08:17:30;103350.22;;;18.34;39.74
68366;BME280;55283;51.466;5.478;2023-01-25T08:20:00;103357.91;;;18.41;40.32
68366;BME280;55283;51.466;5.478;2023-01-25T08:22:26;103346.53;;;18.49;40.52
68366;BME280;55283;51.466;5.478;2023-01-25T08:24:53;103343.38;;;18.51;40.88
68366;BME280;55283;51.466;5.478;2023-01-25T08:27:18;103339.06;;;18.53;40.79
68366;BME280;55283;51.466;5.478;2023-01-25T08:29:44;103345.16;;;18.59;40.84
68366;BME280;55283;51.466;5.478;2023-01-25T08:32:09;103351.97;;;18.62;41.08
68366;BME280;55283;51.466;5.478;2023-01-25T08:34:35;103347.34;;;18.69;40.93
68366;BME280;55283;51.466;5.478;2023-01-25T08:37:00;103343.34;;;18.70;41.14
68366;BME280;55283;51.466;5.478;2023-01-25T08:39:26;103345.28;;;18.66;41.69
68366;BME280;55283;51.466;5.478;2023-01-25T08:41:51;103328.47;;;18.63;41.37
68366;BME280;55283;51.466;5.478;2023-01-25T08:44:17;103327.19;;;18.60;41.60
68366;BME280;55283;51.466;5.478;2023-01-25T08:46:46;103332.13;;;18.67;41.60
68366;BME280;55283;51.466;5.478;2023-01-25T08:49:12;103310.38;;;18.57;41.82
68366;BME280;55283;51.466;5.478;2023-01-25T08:51:38;103332.50;;;18.65;41.96
68366;BME280;55283;51.466;5.478;2023-01-25T08:54:05;103329.78;;;18.69;41.87
68366;BME280;55283;51.466;5.478;2023-01-25T08:56:30;103340.22;;;18.72;41.70
68366;BME280;55283;51.466;5.478;2023-01-25T08:58:56;103338.69;;;18.74;41.90
68366;BME280;55283;51.466;5.478;2023-01-25T09:01:21;103328.88;;;18.65;42.25
68366;BME280;55283;51.466;5.478;2023-01-25T09:03:48;103340.94;;;18.69;42.07
68366;BME280;55283;51.466;5.478;2023-01-25T09:06:15;103330.22;;;18.71;42.25
68366;BME280;55283;51.466;5.478;2023-01-25T09:08:41;103331.38;;;18.70;42.46
68366;BME280;55283;51.466;5.478;2023-01-25T09:11:13;103318.69;;;18.72;42.26
68366;BME280;55283;51.466;5.478;2023-01-25T09:13:38;103306.09;;;18.63;42.23
68366;BME280;55283;51.466;5.478;2023-01-25T09:16:12;103314.34;;;18.75;42.10
68366;BME280;55283;51.466;5.478;2023-01-25T09:18:39;103309.13;;;18.73;41.39
68366;BME280;55283;51.466;5.478;2023-01-25T09:21:13;103313.25;;;18.80;41.74
68366;BME280;55283;51.466;5.478;2023-01-25T09:23:39;103320.75;;;18.75;42.30
68366;BME280;55283;51.466;5.478;2023-01-25T09:26:05;103312.34;;;18.75;42.39
68366;BME280;55283;51.466;5.478;2023-01-25T09:28:31;103307.56;;;18.76;42.42
68366;BME280;55283;51.466;5.478;2023-01-25T09:30:59;103313.97;;;18.76;42.49
68366;BME280;55283;51.466;5.478;2023-01-25T09:33:30;103299.94;;;18.73;42.35
68366;BME280;55283;51.466;5.478;2023-01-25T09:35:56;103320.16;;;18.86;42.31
68366;BME280;55283;51.466;5.478;2023-01-25T09:38:21;103306.91;;;18.83;42.43
68366;BME280;55283;51.466;5.478;2023-01-25T09:46:42;103312.28;;;18.91;42.59
68366;BME280;55283;51.466;5.478;2023-01-25T09:52:02;103313.44;;;18.90;42.70
68366;BME280;55283;51.466;5.478;2023-01-25T09:54:37;103310.56;;;18.87;42.54
68366;BME280;55283;51.466;5.478;2023-01-25T09:57:20;103304.25;;;18.90;42.55
68366;BME280;55283;51.466;5.478;2023-01-25T09:59:49;103306.22;;;18.89;42.62
68366;BME280;55283;51.466;5.478;2023-01-25T10:03:32;103312.63;;;18.90;42.85
68366;BME280;55283;51.466;5.478;2023-01-25T10:05:29;103311.75;;;18.86;42.80
68366;BME280;55283;51.466;5.478;2023-01-25T10:08:01;103310.56;;;18.87;43.08
68366;BME280;55283;51.466;5.478;2023-01-25T10:10:39;103308.03;;;18.78;43.37
68366;BME280;55283;51.466;5.478;2023-01-25T10:13:23;103305.00;;;18.87;43.17
68366;BME280;55283;51.466;5.478;2023-01-25T10:15:52;103297.41;;;18.87;42.91
68366;BME280;55283;51.466;5.478;2023-01-25T10:21:19;103296.25;;;18.88;43.29
68366;BME280;55283;51.466;5.478;2023-01-25T10:26:34;103287.03;;;18.88;43.22
68366;BME280;55283;51.466;5.478;2023-01-25T10:29:12;103282.19;;;18.85;43.17
68366;BME280;55283;51.466;5.478;2023-01-25T10:31:53;103292.63;;;18.88;43.31
68366;BME280;55283;51.466;5.478;2023-01-25T10:34:32;103283.00;;;18.85;43.42
68366;BME280;55283;51.466;5.478;2023-01-25T10:37:03;103277.41;;;18.85;43.29
68366;BME280;55283;51.466;5.478;2023-01-25T10:39:38;103277.84;;;18.87;43.53
68366;BME280;55283;51.466;5.478;2023-01-25T10:42:08;103265.31;;;18.77;42.63
68366;BME280;55283;51.466;5.478;2023-01-25T10:44:36;103263.66;;;18.76;43.39
68366;BME280;55283;51.466;5.478;2023-01-25T10:47:14;103263.31;;;18.78;43.82
68366;BME280;55283;51.466;5.478;2023-01-25T10:49:45;103237.66;;;18.72;43.75
68366;BME280;55283;51.466;5.478;2023-01-25T10:54:48;103238.97;;;18.78;43.29
68366;BME280;55283;51.466;5.478;2023-01-25T10:57:19;103222.25;;;18.82;42.63
68366;BME280;55283;51.466;5.478;2023-01-25T10:59:50;103236.97;;;18.79;43.47
68366;BME280;55283;51.466;5.478;2023-01-25T11:04:56;103221.34;;;18.74;43.56
68366;BME280;55283;51.466;5.478;2023-01-25T11:07:27;103215.31;;;18.72;43.77
68366;BME280;55283;51.466;5.478;2023-01-25T11:09:53;103209.41;;;18.77;43.58
68366;BME280;55283;51.466;5.478;2023-01-25T11:12:19;103215.31;;;18.72;43.67
68366;BME280;55283;51.466;5.478;2023-01-25T11:14:47;103200.44;;;18.68;43.90
68366;BME280;55283;51.466;5.478;2023-01-25T11:17:27;103191.31;;;18.71;43.90
68366;BME280;55283;51.466;5.478;2023-01-25T11:20:23;103191.00;;;18.76;43.79
68366;BME280;55283;51.466;5.478;2023-01-25T11:22:53;103188.88;;;18.70;43.93
68366;BME280;55283;51.466;5.478;2023-01-25T11:25:28;103186.88;;;18.70;44.09
68366;BME280;55283;51.466;5.478;2023-01-25T11:28:15;103184.56;;;18.72;44.02
68366;BME280;55283;51.466;5.478;2023-01-25T11:30:41;103172.75;;;18.60;44.19
68366;BME280;55283;51.466;5.478;2023-01-25T11:33:14;103162.84;;;18.62;44.49
68366;BME280;55283;51.466;5.478;2023-01-25T11:55:43;103117.50;;;18.72;44.96
68366;BME280;55283;51.466;5.478;2023-01-25T11:58:18;103119.13;;;18.73;44.75
68366;BME280;55283;51.466;5.478;2023-01-25T12:00:49;103113.53;;;18.73;44.61
68366;BME280;55283;51.466;5.478;2023-01-25T12:18:19;103058.47;;;18.74;44.76
68366;BME280;55283;51.466;5.478;2023-01-25T12:31:45;103017.41;;;18.78;44.67
68366;BME280;55283;51.466;5.478;2023-01-25T12:34:34;103023.44;;;18.80;44.65
68366;BME280;55283;51.466;5.478;2023-01-25T12:37:09;103008.59;;;18.76;44.54
68366;BME280;55283;51.466;5.478;2023-01-25T12:39:44;102994.59;;;18.72;44.98
68366;BME280;55283;51.466;5.478;2023-01-25T12:42:49;103004.13;;;18.71;44.91
68366;BME280;55283;51.466;5.478;2023-01-25T12:45:21;102995.81;;;18.75;44.81
68366;BME280;55283;51.466;5.478;2023-01-25T12:47:53;102995.44;;;18.76;44.92
68366;BME280;55283;51.466;5.478;2023-01-25T12:50:46;102992.25;;;18.78;44.82
68366;BME280;55283;51.466;5.478;2023-01-25T12:56:07;102981.25;;;18.89;44.70
68366;BME280;55283;51.466;5.478;2023-01-25T12:58:45;102972.50;;;18.94;44.43
68366;BME280;55283;51.466;5.478;2023-01-25T13:01:31;102960.53;;;18.93;44.65
68366;BME280;55283;51.466;5.478;2023-01-25T13:12:26;102952.09;;;18.90;44.62
68366;BME280;55283;51.466;5.478;2023-01-25T13:14:51;102928.84;;;18.82;44.43
68366;BME280;55283;51.466;5.478;2023-01-25T13:17:28;102939.31;;;18.89;44.33
68366;BME280;55283;51.466;5.478;2023-01-25T13:19:54;102940.50;;;18.88;44.62
68366;BME280;55283;51.466;5.478;2023-01-25T13:25:24;102928.16;;;18.89;44.27
68366;BME280;55283;51.466;5.478;2023-01-25T13:27:49;102913.31;;;18.85;44.28
68366;BME280;55283;51.466;5.478;2023-01-25T13:35:31;102921.38;;;18.90;44.21
68366;BME280;55283;51.466;5.478;2023-01-25T13:40:36;102920.09;;;18.84;44.22
68366;BME280;55283;51.466;5.478;2023-01-25T13:43:05;102915.34;;;18.88;44.20
68366;BME280;55283;51.466;5.478;2023-01-25T13:45:41;102903.00;;;18.89;44.01
68366;BME280;55283;51.466;5.478;2023-01-25T13:48:11;102900.59;;;18.91;43.34
68366;BME280;55283;51.466;5.478;2023-01-25T13:50:44;102904.59;;;18.90;43.70
68366;BME280;55283;51.466;5.478;2023-01-25T13:55:45;102905.78;;;18.89;43.76
68366;BME280;55283;51.466;5.478;2023-01-25T13:58:25;102903.00;;;18.89;44.27
68366;BME280;55283;51.466;5.478;2023-01-25T14:03:54;102888.59;;;18.87;44.04
68366;BME280;55283;51.466;5.478;2023-01-25T14:06:24;102888.59;;;18.87;44.10
68366;BME280;55283;51.466;5.478;2023-01-25T14:08:52;102881.44;;;18.89;43.99
68366;BME280;55283;51.466;5.478;2023-01-25T14:11:28;102871.06;;;18.90;44.01
68366;BME280;55283;51.466;5.478;2023-01-25T14:14:03;102871.81;;;18.87;43.89
68366;BME280;55283;51.466;5.478;2023-01-25T14:16:42;102887.81;;;18.90;44.05
68366;BME280;55283;51.466;5.478;2023-01-25T14:19:22;102894.97;;;18.87;44.36
68366;BME280;55283;51.466;5.478;2023-01-25T14:21:48;102892.59;;;18.86;44.09
68366;BME280;55283;51.466;5.478;2023-01-25T14:24:16;102888.59;;;18.87;44.24
68366;BME280;55283;51.466;5.478;2023-01-25T14:26:43;102887.41;;;18.88;44.33
68366;BME280;55283;51.466;5.478;2023-01-25T14:29:16;102891.81;;;18.89;44.21
68366;BME280;55283;51.466;5.478;2023-01-25T14:31:46;102887.81;;;18.90;44.19
68366;BME280;55283;51.466;5.478;2023-01-25T14:34:18;102885.34;;;18.85;44.04
68366;BME280;55283;51.466;5.478;2023-01-25T14:36:44;102892.22;;;18.91;43.87
68366;BME280;55283;51.466;5.478;2023-01-25T14:39:19;102880.63;;;18.89;44.25
68366;BME280;55283;51.466;5.478;2023-01-25T14:41:49;102879.88;;;18.92;43.87
68366;BME280;55283;51.466;5.478;2023-01-25T14:44:18;102880.69;;;18.96;43.71